Time;durP1;ratioP1;P1;durP2;ratioP2;P2;SDS_P1;SDS_P2;PMS_P1;PMS_P2;Temp;Humidity;BMP_temperature;BMP_pressure;BME280_temperature;BME280_humidity;BME280_pressure;Samples;Min_cycle;Max_cycle;Signal;HPM_P1;HPM_P2
2023/01/19 00:01:17;;;;;;;;;10.25;7.75;;;;;-146.44;100.00;58906.56;5075940;27;45500;-54
2023/01/19 00:03:43;;;;;;;;;8.50;8.50;;;;;-146.44;100.00;58906.56;5074417;27;45397;-56
2023/01/19 00:06:08;;;;;;;;;10.50;8.25;;;;;-146.44;100.00;58906.56;5075466;27;45507;-57
2023/01/19 00:08:34;;;;;;;;;11.50;8.00;;;;;-146.44;100.00;58906.56;5075604;27;45532;-58
2023/01/19 00:11:00;;;;;;;;;11.75;10.50;;;;;-146.44;100.00;58906.56;5075741;27;45561;-57
2023/01/19 00:13:26;;;;;;;;;12.50;10.00;;;;;-146.44;100.00;58906.56;5075157;27;45537;-56
2023/01/19 00:15:52;;;;;;;;;11.25;11.25;;;;;-146.44;100.00;58906.56;5073917;28;47469;-56
2023/01/19 00:18:17;;;;;;;;;9.75;9.75;;;;;-146.44;100.00;58906.56;5074976;28;45580;-55
2023/01/19 00:20:45;;;;;;;;;11.25;11.25;;;;;-146.44;100.00;58906.56;5075379;27;45961;-57
2023/01/19 00:23:11;;;;;;;;;12.50;11.50;;;;;-146.44;100.00;58906.56;5068314;27;45356;-55
2023/01/19 00:25:41;;;;;;;;;14.75;12.00;;;;;-146.44;100.00;58906.56;5066655;28;46000;-56
2023/01/19 00:28:07;;;;;;;;;9.50;9.50;;;;;-146.44;100.00;58906.56;5075407;27;45535;-52
2023/01/19 00:30:33;;;;;;;;;11.25;8.00;;;;;-146.44;100.00;58906.56;5074209;27;45489;-54
2023/01/19 00:32:58;;;;;;;;;8.50;8.50;;;;;-146.44;100.00;58906.56;5074957;27;45643;-57
2023/01/19 00:35:23;;;;;;;;;9.00;9.00;;;;;-146.44;100.00;58906.56;5074185;27;55508;-56
2023/01/19 00:37:49;;;;;;;;;9.75;9.50;;;;;-146.44;100.00;58906.56;5074922;27;45536;-58
2023/01/19 00:40:14;;;;;;;;;14.25;12.00;;;;;-146.44;100.00;58906.56;5075097;27;45525;-55
2023/01/19 00:42:40;;;;;;;;;13.75;11.75;;;;;-146.44;100.00;58906.56;5075074;27;45503;-55
2023/01/19 00:45:23;;;;;;;;;12.25;11.00;;;;;-146.44;100.00;58906.56;5074641;28;45736;-56
2023/01/19 00:47:55;;;;;;;;;11.50;9.50;;;;;-146.44;100.00;58906.56;5074919;28;45550;-56
2023/01/19 00:50:22;;;;;;;;;12.00;12.00;;;;;-146.44;100.00;58906.56;5061445;28;45551;-53
2023/01/19 00:52:47;;;;;;;;;12.50;12.50;;;;;-146.44;100.00;58906.56;5074954;27;45522;-55
2023/01/19 00:55:14;;;;;;;;;12.75;12.75;;;;;-146.44;100.00;58906.56;5074518;27;46117;-56
2023/01/19 00:57:41;;;;;;;;;13.00;10.25;;;;;-146.44;100.00;58906.56;5074611;27;45726;-56
2023/01/19 01:00:16;;;;;;;;;14.75;11.75;;;;;-146.44;100.00;58906.56;5073539;27;45603;-56
2023/01/19 01:02:43;;;;;;;;;16.75;13.25;;;;;-146.44;100.00;58906.56;5073598;27;45746;-56
2023/01/19 01:05:09;;;;;;;;;14.25;13.00;;;;;-146.44;100.00;58906.56;5072563;27;45496;-56
2023/01/19 01:07:39;;;;;;;;;14.75;14.75;;;;;-146.44;100.00;58906.56;5073690;27;45395;-56
2023/01/19 01:10:07;;;;;;;;;14.50;12.50;;;;;-146.44;100.00;58906.56;5074367;27;45375;-56
2023/01/19 01:12:33;;;;;;;;;16.25;15.50;;;;;-146.44;100.00;58906.56;5074314;27;45527;-56
2023/01/19 01:14:58;;;;;;;;;18.50;18.50;;;;;-146.44;100.00;58906.56;5073995;28;50871;-58
2023/01/19 01:17:23;;;;;;;;;11.75;11.25;;;;;-146.44;100.00;58906.56;5074321;27;45445;-57
2023/01/19 01:19:49;;;;;;;;;19.25;16.00;;;;;-146.44;100.00;58906.56;5073334;28;45536;-55
2023/01/19 01:22:15;;;;;;;;;18.50;17.75;;;;;-146.44;100.00;58906.56;5073722;27;45643;-56
2023/01/19 01:24:40;;;;;;;;;13.00;13.00;;;;;-146.44;100.00;58906.56;5059856;27;46133;-58
2023/01/19 01:27:06;;;;;;;;;16.00;16.00;;;;;-146.44;100.00;58906.56;5074185;27;45545;-55
2023/01/19 01:29:34;;;;;;;;;14.50;14.50;;;;;-146.44;100.00;58906.56;5073305;27;45581;-57
2023/01/19 01:31:59;;;;;;;;;11.00;9.00;;;;;-146.44;100.00;58906.56;5074380;27;45455;-55
2023/01/19 01:34:25;;;;;;;;;16.25;15.25;;;;;-146.44;100.00;58906.56;5073635;27;45997;-56
2023/01/19 01:36:50;;;;;;;;;19.00;14.25;;;;;-146.44;100.00;58906.56;5068684;28;45514;-55
2023/01/19 01:39:15;;;;;;;;;14.50;14.50;;;;;-146.44;100.00;58906.56;5070198;28;45594;-56
2023/01/19 01:41:41;;;;;;;;;12.50;12.25;;;;;-146.44;100.00;58906.56;5074279;27;45501;-56
2023/01/19 01:44:48;;;;;;;;;18.75;16.25;;;;;-146.44;100.00;58906.56;5073816;27;46050;-54
2023/01/19 01:47:35;;;;;;;;;20.25;18.75;;;;;-146.44;100.00;58906.56;5073832;27;45508;-56
2023/01/19 01:50:14;;;;;;;;;17.00;15.75;;;;;-146.44;100.00;58906.56;5073631;27;45425;-54
2023/01/19 01:52:51;;;;;;;;;16.00;14.00;;;;;-146.44;100.00;58906.56;5073709;27;45496;-55
2023/01/19 01:55:19;;;;;;;;;14.25;11.75;;;;;-146.44;100.00;58906.56;5073685;27;45460;-55
2023/01/19 01:57:50;;;;;;;;;16.00;15.50;;;;;-146.44;100.00;58906.56;5073325;27;45444;-56
2023/01/19 02:00:16;;;;;;;;;20.50;18.00;;;;;-146.44;100.00;58906.56;5072965;27;45595;-53
2023/01/19 02:02:52;;;;;;;;;18.00;17.00;;;;;-146.44;100.00;58906.56;5073445;28;45600;-55
2023/01/19 02:05:26;;;;;;;;;15.75;15.75;;;;;-146.44;100.00;58906.56;5073397;27;45505;-55
2023/01/19 02:13:52;;;;;;;;;16.00;16.00;;;;;-146.44;100.00;58906.56;5062646;27;45504;-56
2023/01/19 02:16:17;;;;;;;;;16.75;15.50;;;;;-146.44;100.00;58906.56;5073061;27;46093;-53
2023/01/19 02:18:44;;;;;;;;;16.25;15.25;;;;;-146.44;100.00;58906.56;5073537;27;45524;-53
2023/01/19 02:21:35;;;;;;;;;19.00;16.00;;;;;-146.44;100.00;58906.56;5073853;28;45528;-56
2023/01/19 02:24:01;;;;;;;;;20.00;16.75;;;;;-146.44;100.00;58906.56;5061870;27;45423;-55
2023/01/19 02:26:29;;;;;;;;;18.25;16.50;;;;;-146.44;100.00;58906.56;5073071;28;45561;-55
2023/01/19 02:28:59;;;;;;;;;17.75;17.75;;;;;-146.44;100.00;58906.56;5072487;27;45428;-53
2023/01/19 02:31:26;;;;;;;;;19.75;18.00;;;;;-146.44;100.00;58906.56;5073045;27;45559;-57
2023/01/19 02:33:53;;;;;;;;;17.00;16.00;;;;;-146.44;100.00;58906.56;5072019;27;45476;-55
2023/01/19 02:36:23;;;;;;;;;17.25;16.25;;;;;-146.44;100.00;58906.56;5073362;27;45541;-53
2023/01/19 02:38:52;;;;;;;;;16.00;14.25;;;;;-146.44;100.00;58906.56;5073736;27;45496;-52
2023/01/19 02:41:21;;;;;;;;;20.75;17.50;;;;;-146.44;100.00;58906.56;5066359;27;45525;-54
2023/01/19 02:43:48;;;;;;;;;23.25;21.00;;;;;-146.44;100.00;58906.56;5056898;28;45715;-61
2023/01/19 02:46:14;;;;;;;;;14.00;14.00;;;;;-146.44;100.00;58906.56;5061628;28;46382;-60
2023/01/19 02:48:40;;;;;;;;;19.25;16.00;;;;;-146.44;100.00;58906.56;5071079;27;45418;-60
2023/01/19 02:51:22;;;;;;;;;19.25;18.25;;;;;-146.44;100.00;58906.56;5071130;27;45446;-59
2023/01/19 02:53:50;;;;;;;;;15.75;15.00;;;;;-146.44;100.00;58906.56;5067437;27;45604;-58
2023/01/19 02:56:51;;;;;;;;;18.00;14.25;;;;;-146.44;100.00;58906.56;5071447;27;45678;-60
2023/01/19 02:59:58;;;;;;;;;17.25;14.75;;;;;-146.44;100.00;58906.56;5067843;28;45594;-61
2023/01/19 03:02:42;;;;;;;;;14.00;10.25;;;;;-146.44;100.00;58906.56;5053741;27;45498;-60
2023/01/19 03:05:40;;;;;;;;;19.00;17.00;;;;;-146.44;100.00;58906.56;5071602;28;45483;-60
2023/01/19 03:08:33;;;;;;;;;16.50;16.50;;;;;-146.44;100.00;58906.56;5071567;27;46049;-60
2023/01/19 03:11:03;;;;;;;;;16.00;15.75;;;;;-146.44;100.00;58906.56;5038132;27;45654;-58
2023/01/19 03:13:41;;;;;;;;;16.75;15.25;;;;;-146.44;100.00;58906.56;5071015;28;45495;-61
2023/01/19 03:16:19;;;;;;;;;18.75;17.50;;;;;-146.44;100.00;58906.56;5070848;27;45502;-58
2023/01/19 03:18:52;;;;;;;;;19.00;17.00;;;;;-146.44;100.00;58906.56;5070755;28;45461;-58
2023/01/19 03:21:21;;;;;;;;;23.75;18.00;;;;;-146.44;100.00;58906.56;5070259;27;45518;-60
2023/01/19 03:23:49;;;;;;;;;17.25;16.00;;;;;-146.44;100.00;58906.56;5070519;28;45542;-61
2023/01/19 03:26:18;;;;;;;;;17.75;16.75;;;;;-146.44;100.00;58906.56;5071040;27;45540;-60
2023/01/19 03:28:47;;;;;;;;;13.25;11.75;;;;;-146.44;100.00;58906.56;5070015;28;46321;-61
2023/01/19 03:31:20;;;;;;;;;16.00;14.75;;;;;-146.44;100.00;58906.56;5066898;28;45453;-59
2023/01/19 03:33:50;;;;;;;;;19.25;17.00;;;;;-146.44;100.00;58906.56;5072551;27;45605;-60
2023/01/19 03:36:26;;;;;;;;;17.00;14.50;;;;;-146.44;100.00;58906.56;5071729;27;45592;-60
2023/01/19 03:38:53;;;;;;;;;25.50;20.00;;;;;-146.44;100.00;58906.56;5072149;27;46068;-60
2023/01/19 03:41:22;;;;;;;;;17.50;16.50;;;;;-146.44;100.00;58906.56;5070638;27;45501;-61
2023/01/19 03:43:50;;;;;;;;;17.25;17.00;;;;;-146.44;100.00;58906.56;5073054;27;45621;-60
2023/01/19 03:46:18;;;;;;;;;18.50;18.50;;;;;-146.44;100.00;58906.56;5075706;27;45543;-57
2023/01/19 03:48:44;;;;;;;;;17.00;17.00;;;;;-146.44;100.00;58906.56;5073992;27;46651;-60
2023/01/19 03:51:11;;;;;;;;;18.50;17.00;;;;;-146.44;100.00;58906.56;5075766;27;45614;-58
2023/01/19 03:53:36;;;;;;;;;19.50;18.75;;;;;-146.44;100.00;58906.56;5075877;27;45541;-61
2023/01/19 03:56:02;;;;;;;;;17.00;17.00;;;;;-146.44;100.00;58906.56;5075736;27;45537;-60
2023/01/19 03:58:28;;;;;;;;;16.25;14.00;;;;;-146.44;100.00;58906.56;5074605;27;45955;-60
2023/01/19 04:00:53;;;;;;;;;22.75;19.50;;;;;-146.44;100.00;58906.56;5075487;27;45363;-59
2023/01/19 04:03:19;;;;;;;;;19.75;16.75;;;;;-146.44;100.00;58906.56;5075753;27;45496;-59
2023/01/19 04:05:44;;;;;;;;;21.75;18.00;;;;;-146.44;100.00;58906.56;5075358;27;45453;-59
2023/01/19 04:08:10;;;;;;;;;15.50;14.25;;;;;-146.44;100.00;58906.56;5075328;27;46151;-58
2023/01/19 04:10:36;;;;;;;;;18.00;18.00;;;;;-146.44;100.00;58906.56;5075256;27;45552;-60
2023/01/19 04:13:02;;;;;;;;;22.25;20.50;;;;;-146.44;100.00;58906.56;5075391;27;45550;-59
2023/01/19 04:15:29;;;;;;;;;24.75;19.00;;;;;-146.44;100.00;58906.56;5075513;27;45515;-60
2023/01/19 04:17:59;;;;;;;;;21.00;20.75;;;;;-146.44;100.00;58906.56;5075042;27;46176;-58
2023/01/19 04:20:26;;;;;;;;;21.75;18.75;;;;;-146.44;100.00;58906.56;5075301;27;45490;-60
2023/01/19 04:22:53;;;;;;;;;21.50;21.50;;;;;-146.44;100.00;58906.56;5075138;27;45489;-61
2023/01/19 04:25:18;;;;;;;;;24.25;19.00;;;;;-146.44;100.00;58906.56;5075224;27;45549;-58
2023/01/19 04:27:44;;;;;;;;;19.25;19.00;;;;;-146.44;100.00;58906.56;5074695;27;45510;-61
2023/01/19 04:30:10;;;;;;;;;22.00;16.25;;;;;-146.44;100.00;58906.56;5074227;27;50011;-60
2023/01/19 04:32:35;;;;;;;;;20.75;17.25;;;;;-146.44;100.00;58906.56;5075110;27;45469;-59
2023/01/19 04:35:00;;;;;;;;;16.50;13.75;;;;;-146.44;100.00;58906.56;5075225;27;45722;-57
2023/01/19 04:37:26;;;;;;;;;18.75;17.00;;;;;-146.44;100.00;58906.56;5073582;27;46405;-60
2023/01/19 04:39:51;;;;;;;;;18.75;17.50;;;;;-146.44;100.00;58906.56;5074854;27;45527;-61
2023/01/19 04:42:17;;;;;;;;;22.00;21.50;;;;;-146.44;100.00;58906.56;5075157;27;45551;-59
2023/01/19 04:44:42;;;;;;;;;19.50;19.25;;;;;-146.44;100.00;58906.56;5075160;27;45431;-58
2023/01/19 04:47:07;;;;;;;;;20.25;18.75;;;;;-146.44;100.00;58906.56;5074598;27;45572;-61
2023/01/19 04:49:36;;;;;;;;;21.75;16.75;;;;;-146.44;100.00;58906.56;5074927;27;45439;-58
2023/01/19 04:52:03;;;;;;;;;18.50;18.50;;;;;-146.44;100.00;58906.56;5074853;28;45462;-59
2023/01/19 04:54:28;;;;;;;;;17.75;15.50;;;;;-146.44;100.00;58906.56;5074894;27;45416;-59
2023/01/19 04:56:55;;;;;;;;;16.00;15.25;;;;;-146.44;100.00;58906.56;5073596;27;46061;-58
2023/01/19 04:59:20;;;;;;;;;16.00;16.00;;;;;-146.44;100.00;58906.56;5073664;27;45630;-61
2023/01/19 05:01:45;;;;;;;;;16.25;16.25;;;;;-146.44;100.00;58906.56;5074854;27;45492;-56
2023/01/19 05:04:11;;;;;;;;;21.00;17.25;;;;;-146.44;100.00;58906.56;5062964;27;45530;-58
2023/01/19 05:06:36;;;;;;;;;18.50;15.00;;;;;-146.44;100.00;58906.56;5067814;27;46235;-58
2023/01/19 05:09:02;;;;;;;;;21.75;17.00;;;;;-146.44;100.00;58906.56;5074151;27;45485;-59
2023/01/19 05:11:27;;;;;;;;;20.50;16.50;;;;;-146.44;100.00;58906.56;5074558;28;45552;-60
2023/01/19 05:13:52;;;;;;;;;16.75;14.25;;;;;-146.44;100.00;58906.56;5074745;28;45435;-60
2023/01/19 05:16:17;;;;;;;;;17.25;16.00;;;;;-146.44;100.00;58906.56;5073291;27;46149;-59
2023/01/19 05:18:43;;;;;;;;;12.75;12.00;;;;;-146.44;100.00;58906.56;5073385;27;45498;-60
2023/01/19 05:21:08;;;;;;;;;13.25;11.75;;;;;-146.44;100.00;58906.56;5069055;27;45582;-58
2023/01/19 05:23:34;;;;;;;;;11.25;11.25;;;;;-146.44;100.00;58906.56;5073488;27;45667;-58
2023/01/19 05:26:00;;;;;;;;;17.00;12.50;;;;;-146.44;100.00;58906.56;5072319;27;46456;-61
2023/01/19 05:28:30;;;;;;;;;13.25;13.25;;;;;-146.44;100.00;58906.56;5071664;27;45626;-60
2023/01/19 05:30:55;;;;;;;;;16.00;13.75;;;;;-146.44;100.00;58906.56;5072957;28;45546;-61
2023/01/19 05:33:21;;;;;;;;;14.50;14.50;;;;;-146.44;100.00;58906.56;5072717;27;45479;-58
2023/01/19 05:35:53;;;;;;;;;22.25;17.25;;;;;-146.44;100.00;58906.56;5073835;28;45512;-60
2023/01/19 05:38:20;;;;;;;;;14.50;12.25;;;;;-146.44;100.00;58906.56;5072107;27;45504;-59
2023/01/19 05:40:45;;;;;;;;;11.25;11.25;;;;;-146.44;100.00;58906.56;5073908;27;45487;-57
2023/01/19 05:43:11;;;;;;;;;14.25;14.25;;;;;-146.44;100.00;58906.56;5073181;27;45642;-59
2023/01/19 05:45:37;;;;;;;;;15.25;15.25;;;;;-146.44;100.00;58906.56;5071781;27;46345;-59
2023/01/19 05:48:03;;;;;;;;;13.00;13.00;;;;;-146.44;100.00;58906.56;5071963;27;45584;-58
2023/01/19 05:50:29;;;;;;;;;15.50;13.25;;;;;-146.44;100.00;58906.56;5071952;27;45555;-63
2023/01/19 05:52:54;;;;;;;;;16.50;15.75;;;;;-146.44;100.00;58906.56;5072264;27;45648;-59
2023/01/19 05:55:20;;;;;;;;;17.25;14.25;;;;;-146.44;100.00;58906.56;5071728;27;45538;-59
2023/01/19 05:57:45;;;;;;;;;19.00;14.00;;;;;-146.44;100.00;58906.56;5070941;27;45516;-62
2023/01/19 06:00:12;;;;;;;;;12.50;12.50;;;;;-146.44;100.00;58906.56;5073106;27;45452;-61
2023/01/19 06:02:37;;;;;;;;;11.50;11.00;;;;;-146.44;100.00;58906.56;5073606;27;45600;-62
2023/01/19 06:05:03;;;;;;;;;11.50;10.50;;;;;-146.44;100.00;58906.56;5073236;27;52266;-60
2023/01/19 06:07:30;;;;;;;;;13.25;11.75;;;;;-146.44;100.00;58906.56;5073111;27;45455;-64
2023/01/19 06:09:56;;;;;;;;;14.25;14.25;;;;;-146.44;100.00;58906.56;5073562;27;45442;-63
2023/01/19 06:12:21;;;;;;;;;5.75;5.75;;;;;-146.44;100.00;58906.56;5072519;27;45590;-61
2023/01/19 06:14:46;;;;;;;;;14.00;12.75;;;;;-146.44;100.00;58906.56;5073251;28;51292;-59
2023/01/19 06:17:11;;;;;;;;;15.25;14.75;;;;;-146.44;100.00;58906.56;5073291;27;45522;-58
2023/01/19 06:19:37;;;;;;;;;13.75;12.25;;;;;-146.44;100.00;58906.56;5073505;27;45428;-59
2023/01/19 06:22:02;;;;;;;;;12.25;11.00;;;;;-146.44;100.00;58906.56;5073676;27;45488;-59
2023/01/19 06:24:28;;;;;;;;;10.00;10.00;;;;;-146.44;100.00;58906.56;5071203;27;46742;-60
2023/01/19 06:26:54;;;;;;;;;9.00;9.00;;;;;-146.44;100.00;58906.56;5073488;28;45499;-62
2023/01/19 06:29:20;;;;;;;;;8.00;8.00;;;;;-146.44;100.00;58906.56;5072181;27;48372;-59
2023/01/19 06:31:46;;;;;;;;;13.00;13.00;;;;;-146.44;100.00;58906.56;5073248;27;45580;-56
2023/01/19 06:34:11;;;;;;;;;15.50;13.25;;;;;-146.44;100.00;58906.56;5073300;27;46309;-59
2023/01/19 06:36:37;;;;;;;;;19.25;16.00;;;;;-146.44;100.00;58906.56;5072757;27;45573;-59
2023/01/19 06:39:04;;;;;;;;;12.25;11.75;;;;;-146.44;100.00;58906.56;5073308;27;45552;-60
2023/01/19 06:41:30;;;;;;;;;13.50;13.25;;;;;-146.44;100.00;58906.56;5073139;27;45456;-59
2023/01/19 06:43:56;;;;;;;;;12.25;12.25;;;;;-146.44;100.00;58906.56;5073109;27;46324;-63
2023/01/19 06:46:21;;;;;;;;;11.00;10.25;;;;;-146.44;100.00;58906.56;5073053;27;45500;-60
2023/01/19 06:48:46;;;;;;;;;10.00;10.00;;;;;-146.44;100.00;58906.56;5073035;27;45561;-58
2023/01/19 06:51:12;;;;;;;;;11.50;11.25;;;;;-146.44;100.00;58906.56;5073107;27;45549;-58
2023/01/19 06:53:38;;;;;;;;;11.00;11.00;;;;;-146.44;100.00;58906.56;5072873;27;46132;-63
2023/01/19 06:56:03;;;;;;;;;15.00;13.00;;;;;-146.44;100.00;58906.56;5071295;27;45512;-62
2023/01/19 06:58:29;;;;;;;;;10.00;8.25;;;;;-146.44;100.00;58906.56;5071325;27;45489;-60
2023/01/19 07:01:00;;;;;;;;;8.50;8.50;;;;;-146.44;100.00;58906.56;5072696;27;45421;-61
2023/01/19 07:03:25;;;;;;;;;11.00;11.00;;;;;-146.44;100.00;58906.56;5072758;27;46119;-58
2023/01/19 07:05:51;;;;;;;;;11.25;11.25;;;;;-146.44;100.00;58906.56;5072526;27;48292;-59
2023/01/19 07:08:17;;;;;;;;;8.75;8.75;;;;;-146.44;100.00;58906.56;5072945;27;45521;-59
2023/01/19 07:10:42;;;;;;;;;9.50;9.50;;;;;-146.44;100.00;58906.56;5072657;27;45559;-61
2023/01/19 07:13:08;;;;;;;;;11.00;9.75;;;;;-146.44;100.00;58906.56;5072712;27;45490;-61
2023/01/19 07:15:33;;;;;;;;;16.50;12.25;;;;;-146.44;100.00;58906.56;5072602;27;46052;-62
2023/01/19 07:17:58;;;;;;;;;13.00;12.00;;;;;-146.44;100.00;58906.56;5072541;27;45441;-58
2023/01/19 07:20:24;;;;;;;;;13.00;10.50;;;;;-146.44;100.00;58906.56;5075881;27;46137;-62
2023/01/19 07:22:55;;;;;;;;;14.00;12.50;;;;;-146.44;100.00;58906.56;5075926;27;46117;-61
2023/01/19 07:25:21;;;;;;;;;12.00;11.50;;;;;-146.44;100.00;58906.56;5075229;27;45461;-59
2023/01/19 07:27:46;;;;;;;;;13.25;9.50;;;;;-146.44;100.00;58906.56;5075761;27;45504;-60
2023/01/19 07:30:14;;;;;;;;;11.00;11.00;;;;;-146.44;100.00;58906.56;5076041;27;45656;-59
2023/01/19 07:32:41;;;;;;;;;14.00;12.25;;;;;-146.44;100.00;58906.56;5076033;27;46113;-63
2023/01/19 07:35:08;;;;;;;;;13.50;11.00;;;;;-146.44;100.00;58906.56;5075532;27;45512;-61
2023/01/19 07:37:33;;;;;;;;;13.25;11.50;;;;;-146.44;100.00;58906.56;5075860;27;45505;-60
2023/01/19 07:39:58;;;;;;;;;11.50;10.50;;;;;-146.44;100.00;58906.56;5075825;27;45544;-61
2023/01/19 07:42:24;;;;;;;;;15.25;13.50;;;;;-146.44;100.00;58906.56;5075804;27;45469;-62
2023/01/19 07:44:49;;;;;;;;;10.25;9.75;;;;;-146.44;100.00;58906.56;5075712;27;45630;-61
2023/01/19 07:47:14;;;;;;;;;13.25;11.00;;;;;-146.44;100.00;58906.56;5075807;27;45392;-61
2023/01/19 07:49:40;;;;;;;;;15.75;8.25;;;;;-146.44;100.00;58906.56;5075797;27;45449;-63
2023/01/19 07:52:05;;;;;;;;;16.75;16.75;;;;;-146.44;100.00;58906.56;5073941;28;46338;-62
2023/01/19 07:54:30;;;;;;;;;13.25;13.25;;;;;-146.44;100.00;58906.56;5074485;27;46451;-62
2023/01/19 07:56:56;;;;;;;;;12.25;11.75;;;;;-146.44;100.00;58906.56;5075304;27;46325;-63
2023/01/19 07:59:21;;;;;;;;;13.75;12.00;;;;;-146.44;100.00;58906.56;5075516;27;45591;-61
2023/01/19 08:01:46;;;;;;;;;22.50;15.50;;;;;-146.44;100.00;58906.56;5073538;27;45492;-61
2023/01/19 08:04:12;;;;;;;;;12.00;10.00;;;;;-146.44;100.00;58906.56;5075271;27;45594;-60
2023/01/19 08:06:38;;;;;;;;;10.75;9.75;;;;;-146.44;100.00;58906.56;5075690;28;45543;-63
2023/01/19 08:09:05;;;;;;;;;10.50;10.50;;;;;-146.44;100.00;58906.56;5075413;27;45484;-61
2023/01/19 08:11:31;;;;;;;;;16.75;14.75;;;;;-146.44;100.00;58906.56;5075217;27;45576;-62
2023/01/19 08:13:57;;;;;;;;;12.25;11.75;;;;;-146.44;100.00;58906.56;5075136;27;45600;-64
2023/01/19 08:16:23;;;;;;;;;18.00;16.00;;;;;-146.44;100.00;58906.56;5075210;27;45473;-64
2023/01/19 08:18:48;;;;;;;;;17.50;17.00;;;;;-146.44;100.00;58906.56;5075180;27;45604;-62
2023/01/19 08:21:14;;;;;;;;;19.75;19.75;;;;;-146.44;100.00;58906.56;5074975;27;45590;-63
2023/01/19 08:23:39;;;;;;;;;17.00;16.25;;;;;-146.44;100.00;58906.56;5074767;27;45563;-61
2023/01/19 08:26:26;;;;;;;;;20.00;16.50;;;;;-146.44;100.00;58906.56;5073568;27;45450;-64
2023/01/19 08:28:56;;;;;;;;;18.75;14.75;;;;;-146.44;100.00;58906.56;5073881;27;45572;-64
2023/01/19 08:31:22;;;;;;;;;29.25;26.50;;;;;-146.44;100.00;58906.56;5072233;27;47209;-62
2023/01/19 08:33:48;;;;;;;;;18.75;18.75;;;;;-146.44;100.00;58906.56;5075177;27;45499;-60
2023/01/19 08:36:13;;;;;;;;;20.50;18.50;;;;;-146.44;100.00;58906.56;5074882;27;45490;-62
2023/01/19 08:38:42;;;;;;;;;20.25;19.25;;;;;-146.44;100.00;58906.56;5074850;27;45571;-60
2023/01/19 08:41:08;;;;;;;;;20.00;17.75;;;;;-146.44;100.00;58906.56;5074748;27;45518;-63
2023/01/19 08:43:33;;;;;;;;;20.50;18.75;;;;;-146.44;100.00;58906.56;5074820;27;45485;-63
2023/01/19 08:45:58;;;;;;;;;20.50;17.25;;;;;-146.44;100.00;58906.56;5074747;27;45639;-59
2023/01/19 08:48:24;;;;;;;;;23.25;17.50;;;;;-146.44;100.00;58906.56;5073271;27;48424;-63
2023/01/19 08:50:51;;;;;;;;;16.50;16.50;;;;;-146.44;100.00;58906.56;5073319;28;47045;-62
2023/01/19 08:53:17;;;;;;;;;23.25;18.25;;;;;-146.44;100.00;58906.56;5074739;27;45508;-62
2023/01/19 08:55:43;;;;;;;;;18.25;16.00;;;;;-146.44;100.00;58906.56;5073637;27;45537;-59
2023/01/19 08:58:09;;;;;;;;;21.25;20.25;;;;;-146.44;100.00;58906.56;5074581;27;45540;-60
2023/01/19 09:00:36;;;;;;;;;21.00;20.00;;;;;-146.44;100.00;58906.56;5074251;27;45967;-60
2023/01/19 09:03:03;;;;;;;;;20.50;20.50;;;;;-146.44;100.00;58906.56;5074517;27;45517;-61
2023/01/19 09:05:34;;;;;;;;;23.50;20.50;;;;;-146.44;100.00;58906.56;5074305;27;46259;-62
2023/01/19 09:08:01;;;;;;;;;25.75;23.50;;;;;-146.44;100.00;58906.56;5074485;27;45575;-60
2023/01/19 09:10:30;;;;;;;;;25.50;24.50;;;;;-146.44;100.00;58906.56;5074246;27;45500;-62
2023/01/19 09:12:56;;;;;;;;;31.50;25.00;;;;;-146.44;100.00;58906.56;5074382;28;45485;-61
2023/01/19 09:15:21;;;;;;;;;19.00;18.75;;;;;-146.44;100.00;58906.56;5074209;27;45438;-62
2023/01/19 09:17:47;;;;;;;;;25.25;22.00;;;;;-146.44;100.00;58906.56;5074179;27;45443;-58
2023/01/19 09:20:12;;;;;;;;;25.75;24.00;;;;;-146.44;100.00;58906.56;5074078;27;53610;-59
2023/01/19 09:22:38;;;;;;;;;21.75;21.00;;;;;-146.44;100.00;58906.56;5074156;27;45452;-58
2023/01/19 09:25:04;;;;;;;;;26.50;23.50;;;;;-146.44;100.00;58906.56;5072918;27;45471;-61
2023/01/19 09:27:30;;;;;;;;;29.00;25.75;;;;;-146.44;100.00;58906.56;5074333;27;45568;-60
2023/01/19 09:29:55;;;;;;;;;26.75;25.50;;;;;-146.44;100.00;58906.56;5072778;27;47076;-59
2023/01/19 09:32:21;;;;;;;;;25.75;21.75;;;;;-146.44;100.00;58906.56;5071528;27;45575;-62
2023/01/19 09:34:47;;;;;;;;;22.00;22.00;;;;;-146.44;100.00;58906.56;5072603;27;45494;-62
2023/01/19 09:37:14;;;;;;;;;49.50;42.25;;;;;-146.44;100.00;58906.56;5071718;27;45646;-61
2023/01/19 09:39:39;;;;;;;;;34.75;29.25;;;;;-146.44;100.00;58906.56;5073885;27;46093;-57
2023/01/19 09:42:34;;;;;;;;;32.25;29.75;;;;;-146.44;100.00;58906.56;5073682;27;45482;-60
2023/01/19 09:45:01;;;;;;;;;33.75;30.75;;;;;-146.44;100.00;58906.56;5074118;27;45545;-58
2023/01/19 09:47:29;;;;;;;;;26.00;26.00;;;;;-146.44;100.00;58906.56;5059968;27;45514;-62
2023/01/19 09:50:05;;;;;;;;;20.75;19.75;;;;;-146.44;100.00;58906.56;5073957;27;45564;-61
2023/01/19 09:52:34;;;;;;;;;25.75;22.00;;;;;-146.44;100.00;58906.56;5073901;27;45414;-60
2023/01/19 09:55:00;;;;;;;;;33.50;25.75;;;;;-146.44;100.00;58906.56;5073238;27;45575;-58
2023/01/19 09:57:26;;;;;;;;;23.75;21.50;;;;;-146.44;100.00;58906.56;5073891;27;45452;-59
2023/01/19 09:59:56;;;;;;;;;23.50;22.00;;;;;-146.44;100.00;58906.56;5073692;27;46043;-60
2023/01/19 10:02:50;;;;;;;;;27.00;24.25;;;;;-146.44;100.00;58906.56;5072196;27;45573;-62
2023/01/19 10:05:24;;;;;;;;;25.00;24.50;;;;;-146.44;100.00;58906.56;5073368;27;45568;-57
2023/01/19 10:08:27;;;;;;;;;26.25;25.00;;;;;-146.44;100.00;58906.56;5071371;27;45535;-62
2023/01/19 10:10:55;;;;;;;;;29.25;23.75;;;;;-146.44;100.00;58906.56;5073255;27;45563;-60
2023/01/19 10:13:42;;;;;;;;;26.00;25.25;;;;;-146.44;100.00;58906.56;5073698;27;45699;-58
2023/01/19 10:16:33;;;;;;;;;31.75;30.75;;;;;-146.44;100.00;58906.56;5073346;27;45496;-61
2023/01/19 10:19:16;;;;;;;;;25.00;23.25;;;;;-146.44;100.00;58906.56;5073582;27;45481;-63
2023/01/19 10:21:44;;;;;;;;;23.50;23.25;;;;;-146.44;100.00;58906.56;5073480;27;45555;-60
2023/01/19 10:24:44;;;;;;;;;24.75;22.00;;;;;-146.44;100.00;58906.56;5073223;27;45430;-61
2023/01/19 10:27:25;;;;;;;;;21.25;20.00;;;;;-146.44;100.00;58906.56;5051583;28;45607;-62
2023/01/19 10:29:51;;;;;;;;;25.00;22.75;;;;;-146.44;100.00;58906.56;5071036;27;45515;-62
2023/01/19 10:32:25;;;;;;;;;24.50;24.50;;;;;-146.44;100.00;58906.56;5073170;27;45553;-62
2023/01/19 10:34:52;;;;;;;;;35.75;26.25;;;;;-146.44;100.00;58906.56;5073373;27;45457;-58
2023/01/19 10:37:28;;;;;;;;;26.50;25.75;;;;;-146.44;100.00;58906.56;5072206;27;45579;-60
2023/01/19 10:39:59;;;;;;;;;27.25;25.25;;;;;-146.44;100.00;58906.56;5073238;27;46076;-59
2023/01/19 10:42:29;;;;;;;;;26.50;25.00;;;;;-146.44;100.00;58906.56;5073389;27;46398;-61
2023/01/19 10:44:54;;;;;;;;;28.50;27.25;;;;;-146.44;100.00;58906.56;5073159;27;45589;-59
2023/01/19 10:47:28;;;;;;;;;25.50;25.00;;;;;-146.44;100.00;58906.56;5058726;27;45561;-62
2023/01/19 10:49:54;;;;;;;;;27.50;26.75;;;;;-146.44;100.00;58906.56;5073092;27;45413;-62
2023/01/19 10:52:35;;;;;;;;;28.50;27.00;;;;;-146.44;100.00;58906.56;5072756;27;46149;-62
2023/01/19 10:55:06;;;;;;;;;32.50;30.25;;;;;-146.44;100.00;58906.56;5074989;27;45583;-61
2023/01/19 10:57:39;;;;;;;;;26.50;26.00;;;;;-146.44;100.00;58906.56;5076351;27;45525;-60
2023/01/19 11:00:26;;;;;;;;;26.25;22.00;;;;;-146.44;100.00;58906.56;5076574;27;45471;-59
2023/01/19 11:02:51;;;;;;;;;33.00;26.50;;;;;-146.44;100.00;58906.56;5076143;27;45550;-60
2023/01/19 11:05:23;;;;;;;;;32.00;29.25;;;;;-146.44;100.00;58906.56;5076308;27;45513;-57
2023/01/19 11:07:49;;;;;;;;;26.75;26.00;;;;;-146.44;100.00;58906.56;5075360;27;45430;-59